MKJS

Details ICAO MKJS (MBJ)
Name Sangster Intl
Region Jamaica
Timezone America/Jamaica (UTC-5.0)
Plans Departing 287
Arriving 337
Stats Elevation 6 ft / 2 m (AMSL)
Location 18.503549° -77.913698°
Runways 1
Magnetic Variation 6.957° W
Sunrise 2017-12-17 11:38:38 UTC / 2017-12-17 06:38:38 Local
Sunset 2017-12-17 22:39:51 UTC / 2017-12-17 17:39:51 Local
Advertisement - Login to hide

Runways

ID Width Length Bearing (true) Bearing (mag) Surface Threshold Offset Overrun Length
07 161 ft / 49 m 8,495 ft / 2,589 m 65.37° 72.33° Asphalt 220 ft / 67 m 312 ft / 95 m
25 161 ft / 49 m 8,495 ft / 2,589 m 245.37° 252.33° Asphalt 577 ft / 176 m 200 ft / 61 m

Approach Navaids

Runway Type Ident Frequency Range Bearing (true) Bearing (mag) Slope Elevation
07 Localiser ISIA 109.50 MHz 18 nm / 33 km 65.41° 72.36° - 4 ft / 1 m (AMSL)
07 Glidescope ISIA 109.50 MHz 10 nm / 19 km 65.37° 72.33° 3.00° 4 ft / 1 m (AMSL)

Map

Weather


0- 5 10 15 20 25 30 35+ Temperature / ° C

Clouds and Precipitation
Forecast for 2017-12-18 00:00 UTC. Updated 5 minutes ago

Ground ~20,000 ft ~40,000 ft Winds

METAR

MKJS 171900Z 07020KT 9999 FEW026 30/22 Q1015

TAF

TAF MKJS 171715Z 1718/1818 07015KT 9999 FEW024 BECMG 1802/1804 VRB03KT BECMG 1814/1816 07015KT

Frequencies

Recorded 127.90 MHz MKJS ATIS
Tower 120.80 MHz SANGSTER TWR
Ground 121.70 MHz SANGSTER GND
Approach 120.80 MHz SANGSTER APP
Warning: Do not use this data for real-world aviation or navigation. No guarantee of current accuracy is given.